createdAt,value
2022-09-21T00:01:52.015Z,17.00
2022-09-21T00:04:56.646Z,21.00
2022-09-21T00:08:04.063Z,18.00
2022-09-21T00:11:08.926Z,20.60
2022-09-21T00:14:14.941Z,21.40
2022-09-21T00:17:18.231Z,21.00
2022-09-21T00:20:23.587Z,18.00
2022-09-21T00:23:27.258Z,20.00
2022-09-21T00:26:31.062Z,16.20
2022-09-21T00:29:35.512Z,20.00
2022-09-21T00:32:39.679Z,20.00
2022-09-21T00:35:44.422Z,18.00
2022-09-21T00:38:51.347Z,21.00
2022-09-21T00:41:54.623Z,15.00
2022-09-21T00:44:58.211Z,18.00
2022-09-21T00:48:01.864Z,18.00
2022-09-21T00:51:09.313Z,16.40
2022-09-21T00:54:20.986Z,19.60
2022-09-21T00:57:27.270Z,20.25
2022-09-21T01:00:30.634Z,18.00
2022-09-21T01:03:34.120Z,19.40
2022-09-21T01:06:39.954Z,18.00
2022-09-21T01:09:45.589Z,18.00
2022-09-21T01:13:02.882Z,19.00
2022-09-21T01:16:12.672Z,17.40
2022-09-21T01:19:34.817Z,17.00
2022-09-21T01:22:56.715Z,17.50
2022-09-21T01:26:13.483Z,16.50
2022-09-21T01:29:24.109Z,20.40
2022-09-21T01:32:31.482Z,19.00
2022-09-21T01:35:39.168Z,17.40
2022-09-21T01:38:50.402Z,17.25
2022-09-21T01:41:55.709Z,17.50
2022-09-21T01:45:03.654Z,18.00
2022-09-21T01:48:07.135Z,19.40
2022-09-21T01:51:15.233Z,16.00
2022-09-21T01:54:23.383Z,18.80
2022-09-21T01:57:40.408Z,18.20
2022-09-21T02:00:48.371Z,19.60
2022-09-21T02:03:56.518Z,18.60
2022-09-21T02:07:00.642Z,19.00
2022-09-21T02:10:08.666Z,20.00
2022-09-21T02:13:14.870Z,21.60
2022-09-21T02:16:33.391Z,19.60
2022-09-21T02:19:46.423Z,17.75
2022-09-21T02:23:00.946Z,21.20
2022-09-21T02:26:09.205Z,20.60
2022-09-21T02:29:20.655Z,22.00
2022-09-21T02:32:35.064Z,21.00
2022-09-21T02:35:45.538Z,21.75
2022-09-21T02:38:53.072Z,22.00
2022-09-21T02:42:06.529Z,22.40
2022-09-21T02:45:14.943Z,20.20
2022-09-21T02:48:26.061Z,20.40
2022-09-21T02:51:33.138Z,21.00
2022-09-21T02:54:39.295Z,23.50
2022-09-21T02:57:42.765Z,23.40
2022-09-21T03:00:46.087Z,24.00
2022-09-21T03:03:51.222Z,20.80
2022-09-21T03:06:54.795Z,21.67
2022-09-21T03:10:01.191Z,22.80
2022-09-21T03:13:04.472Z,22.00
2022-09-21T03:16:08.472Z,19.75
2022-09-21T03:19:13.307Z,21.00
2022-09-21T03:22:17.984Z,21.20
2022-09-21T03:25:21.213Z,21.40
2022-09-21T03:28:24.691Z,20.00
2022-09-21T03:31:28.034Z,19.80
2022-09-21T03:34:35.108Z,19.75
2022-09-21T03:37:41.296Z,20.00
2022-09-21T03:40:46.802Z,19.60
2022-09-21T03:43:50.082Z,20.50
2022-09-21T03:46:53.817Z,19.60
2022-09-21T03:49:58.923Z,22.40
2022-09-21T03:53:02.197Z,22.00
2022-09-21T03:56:05.989Z,21.25
2022-09-21T03:59:13.791Z,23.00
2022-09-21T04:02:17.798Z,24.00
2022-09-21T04:05:23.025Z,18.60
2022-09-21T04:08:26.691Z,22.00
2022-09-21T04:11:31.293Z,21.33
2022-09-21T04:14:34.958Z,22.00
2022-09-21T04:17:38.498Z,23.25
2022-09-21T04:20:43.111Z,21.00
2022-09-21T04:23:46.960Z,23.00
2022-09-21T04:26:50.319Z,22.00
2022-09-21T04:29:53.991Z,23.40
2022-09-21T04:32:57.285Z,22.00
2022-09-21T04:36:02.358Z,20.00
2022-09-21T04:39:06.786Z,22.60
2022-09-21T04:42:11.194Z,21.00
2022-09-21T04:45:14.385Z,24.00
2022-09-21T04:48:18.136Z,21.80
2022-09-21T04:51:22.831Z,21.00
2022-09-21T04:54:26.072Z,24.00
2022-09-21T04:57:29.362Z,25.40
2022-09-21T05:00:33.195Z,20.60
2022-09-21T05:03:36.523Z,22.80
2022-09-21T05:06:42.369Z,24.00
2022-09-21T05:10:03.244Z,24.20
2022-09-21T05:13:06.676Z,24.50
2022-09-21T05:16:10.316Z,24.00
2022-09-21T05:19:13.606Z,22.20
2022-09-21T05:22:21.333Z,21.00
2022-09-21T05:25:24.834Z,24.40
2022-09-21T05:28:29.436Z,26.75
2022-09-21T05:31:40.392Z,23.80
2022-09-21T05:34:55.144Z,22.40
2022-09-21T05:38:05.497Z,23.20
2022-09-21T05:41:10.187Z,23.80
2022-09-21T05:44:15.628Z,20.80
2022-09-21T05:47:26.398Z,21.80
2022-09-21T05:50:37.997Z,22.00
2022-09-21T05:53:55.053Z,24.00
2022-09-21T05:57:06.838Z,20.00
2022-09-21T06:00:17.509Z,23.40
2022-09-21T06:03:31.401Z,19.20
2022-09-21T06:06:34.895Z,21.40
2022-09-21T06:09:43.085Z,19.50
2022-09-21T06:12:46.616Z,18.00
2022-09-21T06:15:50.223Z,20.00
2022-09-21T06:18:53.482Z,20.00
2022-09-21T06:21:56.734Z,23.00
2022-09-21T06:25:01.325Z,18.00
2022-09-21T06:28:05.241Z,18.00
2022-09-21T06:31:08.525Z,20.40
2022-09-21T06:34:11.755Z,21.00
2022-09-21T06:37:15.022Z,20.75
2022-09-21T06:40:19.744Z,22.00
2022-09-21T06:43:23.631Z,19.00
2022-09-21T06:46:26.917Z,19.00
2022-09-21T06:49:30.470Z,19.20
2022-09-21T06:52:33.718Z,17.20
2022-09-21T06:55:38.358Z,19.40
2022-09-21T06:58:41.652Z,19.00
2022-09-21T07:01:45.463Z,17.00
2022-09-21T07:04:48.859Z,19.00
2022-09-21T07:07:53.942Z,20.00
2022-09-21T07:11:01.600Z,18.00
2022-09-21T07:14:05.600Z,20.00
2022-09-21T07:17:09.617Z,17.20
2022-09-21T07:20:19.319Z,19.50
2022-09-21T07:23:22.799Z,18.00
2022-09-21T07:26:27.458Z,19.00
2022-09-21T07:29:31.577Z,19.00
2022-09-21T07:32:35.610Z,19.40
2022-09-21T07:35:39.332Z,18.75
2022-09-21T07:38:44.224Z,18.40
2022-09-21T07:41:49.119Z,19.40
2022-09-21T07:45:03.325Z,19.00
2022-09-21T07:48:08.841Z,16.80
2022-09-21T07:51:13.991Z,17.00
2022-09-21T07:54:17.204Z,15.00
2022-09-21T07:57:41.748Z,18.00
2022-09-21T08:00:47.230Z,16.00
2022-09-21T08:03:50.862Z,16.00
2022-09-21T08:06:54.081Z,16.40
2022-09-21T08:09:59.002Z,14.80
2022-09-21T08:13:03.630Z,13.20
2022-09-21T08:16:07.501Z,14.00
2022-09-21T08:19:11.620Z,12.20
2022-09-21T08:22:15.490Z,15.00
2022-09-21T08:25:22.579Z,14.00
2022-09-21T08:28:27.597Z,13.40
2022-09-21T08:31:31.050Z,13.00
2022-09-21T08:34:34.422Z,14.50
2022-09-21T08:37:38.458Z,13.00
2022-09-21T08:40:42.297Z,14.00
2022-09-21T08:43:51.205Z,15.00
2022-09-21T08:47:04.497Z,14.00
2022-09-21T08:50:24.563Z,14.00
2022-09-21T08:53:34.016Z,16.00
2022-09-21T08:57:03.462Z,15.20
2022-09-21T09:00:03.715Z,15.60
2022-09-21T09:03:22.586Z,15.00
2022-09-21T09:06:34.860Z,14.75
2022-09-21T09:09:55.171Z,12.00
2022-09-21T09:13:14.169Z,15.60
2022-09-21T09:16:29.368Z,16.00
2022-09-21T09:19:41.976Z,12.50
2022-09-21T09:22:49.760Z,14.00
2022-09-21T09:25:58.277Z,11.20
2022-09-21T09:29:07.499Z,13.40
2022-09-21T09:32:16.008Z,11.00
2022-09-21T09:35:28.856Z,12.40
2022-09-21T09:38:38.835Z,11.00
2022-09-21T09:42:09.193Z,10.20
2022-09-21T09:45:40.493Z,9.00
2022-09-21T09:49:03.555Z,9.00
2022-09-21T09:52:10.464Z,9.00
2022-09-21T09:55:20.480Z,8.00
2022-09-21T09:58:27.001Z,8.80
2022-09-21T10:01:43.125Z,6.00
2022-09-21T10:05:06.642Z,7.00
2022-09-21T10:08:30.262Z,6.60
2022-09-21T10:11:39.642Z,7.00
2022-09-21T10:14:50.862Z,7.25
2022-09-21T10:18:03.685Z,5.60
2022-09-21T10:21:10.753Z,7.00
2022-09-21T10:24:23.675Z,6.00
2022-09-21T10:27:29.781Z,5.20
2022-09-21T10:30:35.428Z,4.00
2022-09-21T10:33:49.350Z,6.00
2022-09-21T10:36:56.379Z,5.75
2022-09-21T10:40:00.008Z,5.00
2022-09-21T10:43:03.642Z,5.00
2022-09-21T10:46:07.254Z,6.00
2022-09-21T10:49:18.442Z,5.00
2022-09-21T10:52:25.318Z,5.00
2022-09-21T10:55:32.512Z,7.00
2022-09-21T10:58:36.977Z,6.00
2022-09-21T11:01:46.623Z,6.00
2022-09-21T11:04:55.045Z,7.00
2022-09-21T11:08:05.266Z,7.80
2022-09-21T11:11:22.536Z,8.20
2022-09-21T11:14:42.784Z,6.60
2022-09-21T11:17:50.902Z,5.00
2022-09-21T11:21:00.202Z,5.00
2022-09-21T11:24:15.829Z,6.00
2022-09-21T11:27:25.392Z,5.00
2022-09-21T11:30:39.486Z,4.80
2022-09-21T11:34:06.184Z,5.40
2022-09-21T11:37:20.140Z,10.00
2022-09-21T11:41:01.970Z,12.00
2022-09-21T11:44:38.221Z,10.00
2022-09-21T11:48:01.791Z,6.50
2022-09-21T11:51:21.832Z,7.00
2022-09-21T11:55:06.735Z,7.00
2022-09-21T11:58:18.771Z,7.00
2022-09-21T12:01:41.279Z,9.00
2022-09-21T12:04:50.969Z,8.80
2022-09-21T12:08:14.878Z,8.00
2022-09-21T12:11:33.381Z,9.00
2022-09-21T12:14:45.497Z,10.00
2022-09-21T12:17:56.714Z,8.00
2022-09-21T12:21:06.776Z,10.00
2022-09-21T12:24:17.985Z,8.00
2022-09-21T12:27:28.872Z,7.75
2022-09-21T12:30:35.647Z,9.00
2022-09-21T12:33:43.417Z,8.40
2022-09-21T12:36:56.830Z,8.00
2022-09-21T12:40:06.770Z,6.60
2022-09-21T12:43:28.153Z,6.00
2022-09-21T12:46:38.091Z,6.60
2022-09-21T12:49:45.963Z,7.00
2022-09-21T12:52:50.679Z,6.80
2022-09-21T12:56:07.665Z,7.20
2022-09-21T12:59:27.299Z,8.00
2022-09-21T13:02:37.204Z,7.00
2022-09-21T13:05:54.602Z,8.00
2022-09-21T13:09:03.362Z,5.75
2022-09-21T13:12:12.582Z,9.00
2022-09-21T13:15:23.750Z,6.00
2022-09-21T13:18:35.846Z,5.00
2022-09-21T13:21:40.038Z,6.75
2022-09-21T13:24:45.650Z,6.67
2022-09-21T13:28:05.487Z,5.00
2022-09-21T13:31:53.039Z,6.00
2022-09-21T13:35:44.375Z,7.00
2022-09-21T13:39:15.384Z,5.50
2022-09-21T13:42:46.417Z,8.00
2022-09-21T13:45:53.553Z,6.00
2022-09-21T13:48:57.014Z,6.80
2022-09-21T13:52:05.107Z,5.00
2022-09-21T13:55:28.325Z,6.00
2022-09-21T13:58:36.708Z,7.00
2022-09-21T14:01:48.121Z,3.40
2022-09-21T14:04:53.086Z,5.00
2022-09-21T14:08:01.340Z,4.00
2022-09-21T14:11:08.551Z,5.00
2022-09-21T14:14:24.656Z,5.00
2022-09-21T14:17:38.489Z,4.00
2022-09-21T14:20:42.496Z,4.00
2022-09-21T14:24:11.419Z,4.00
2022-09-21T14:27:22.112Z,5.40
2022-09-21T14:30:28.207Z,5.00
2022-09-21T14:33:42.177Z,5.00
2022-09-21T14:36:50.187Z,8.00
2022-09-21T14:39:55.916Z,5.00
2022-09-21T14:43:03.552Z,4.00
2022-09-21T14:46:30.707Z,2.00
2022-09-21T14:49:51.386Z,3.00
2022-09-21T14:53:23.254Z,3.00
2022-09-21T14:56:44.321Z,2.00
2022-09-21T15:00:02.921Z,2.60
2022-09-21T15:03:19.862Z,2.00
2022-09-21T15:06:47.825Z,4.00
2022-09-21T15:10:25.616Z,1.50
2022-09-21T15:13:45.093Z,2.00
2022-09-21T15:16:51.091Z,2.00
2022-09-21T15:19:59.323Z,2.00
2022-09-21T15:23:04.394Z,2.00
2022-09-21T15:26:11.516Z,2.00
2022-09-21T15:29:25.684Z,3.00
2022-09-21T15:32:37.842Z,4.00
2022-09-21T15:35:41.327Z,3.25
2022-09-21T15:38:49.878Z,3.00
2022-09-21T15:42:18.260Z,2.00
2022-09-21T15:45:24.183Z,2.00
2022-09-21T15:48:33.314Z,3.20
2022-09-21T15:51:40.803Z,3.00
2022-09-21T15:54:49.140Z,4.00
2022-09-21T15:57:56.361Z,3.50
2022-09-21T16:01:01.463Z,4.00
2022-09-21T16:04:07.851Z,3.50
2022-09-21T16:07:31.090Z,3.00
2022-09-21T16:10:41.742Z,4.00
2022-09-21T16:14:04.065Z,3.75
2022-09-21T16:17:28.562Z,4.50
2022-09-21T16:20:47.465Z,3.40
2022-09-21T16:23:55.558Z,4.50
2022-09-21T16:27:02.076Z,4.00
2022-09-21T16:30:06.593Z,3.50
2022-09-21T16:33:37.740Z,2.00
2022-09-21T16:36:46.179Z,4.00
2022-09-21T16:39:49.454Z,2.00
2022-09-21T16:42:52.938Z,3.00
2022-09-21T16:45:56.462Z,2.00
2022-09-21T16:49:02.264Z,4.00
2022-09-21T16:52:07.697Z,2.00
2022-09-21T16:55:12.299Z,3.00
2022-09-21T16:58:15.697Z,2.00
2022-09-21T17:01:20.801Z,2.00
2022-09-21T17:04:27.402Z,3.40
2022-09-21T17:07:30.759Z,2.00
2022-09-21T17:10:38.523Z,4.00
2022-09-21T17:13:41.697Z,2.75
2022-09-21T17:16:52.591Z,4.00
2022-09-21T17:19:57.483Z,2.00
2022-09-21T17:23:01.367Z,4.00
2022-09-21T17:26:04.750Z,2.00
2022-09-21T17:29:23.166Z,2.60
2022-09-21T17:32:26.503Z,4.00
2022-09-21T17:35:33.925Z,6.00
2022-09-21T17:38:37.863Z,5.00
2022-09-21T17:41:51.443Z,6.00
2022-09-21T17:45:14.291Z,9.00
2022-09-21T17:48:21.308Z,8.00
2022-09-21T17:51:44.318Z,9.20
2022-09-21T17:54:48.107Z,9.40
2022-09-21T17:58:02.407Z,9.00
2022-09-21T18:01:08.660Z,12.00
2022-09-21T18:04:12.217Z,12.00
2022-09-21T18:07:18.060Z,10.00
2022-09-21T18:10:23.208Z,11.00
2022-09-21T18:13:38.437Z,8.60
2022-09-21T18:16:52.689Z,12.00
2022-09-21T18:20:11.288Z,11.00
2022-09-21T18:23:23.343Z,12.40
2022-09-21T18:26:27.099Z,14.00
2022-09-21T18:29:39.739Z,16.00
2022-09-21T18:33:07.320Z,12.00
2022-09-21T18:36:23.227Z,13.00
2022-09-21T18:39:39.864Z,13.00
2022-09-21T18:42:51.330Z,15.00
2022-09-21T18:46:01.954Z,13.00
2022-09-21T18:49:14.601Z,13.00
2022-09-21T18:52:30.969Z,15.00
2022-09-21T18:55:37.395Z,12.80
2022-09-21T18:58:41.719Z,15.00
2022-09-21T19:01:47.088Z,16.00
2022-09-21T19:04:50.940Z,13.50
2022-09-21T19:08:05.770Z,16.00
2022-09-21T19:11:18.564Z,16.40
2022-09-21T19:14:32.041Z,15.00
2022-09-21T19:17:53.246Z,13.40
2022-09-21T19:21:13.456Z,15.80
2022-09-21T19:24:25.660Z,18.00
2022-09-21T19:27:38.604Z,15.00
2022-09-21T19:30:43.008Z,15.00
2022-09-21T19:33:51.402Z,15.00
2022-09-21T19:36:57.320Z,15.40
2022-09-21T19:40:00.920Z,16.60
2022-09-21T19:43:20.788Z,16.00
2022-09-21T19:46:33.585Z,16.75
2022-09-21T19:49:46.343Z,16.40
2022-09-21T19:52:50.915Z,15.40
2022-09-21T19:56:14.720Z,17.60
2022-09-21T19:59:37.690Z,14.60
2022-09-21T20:02:50.009Z,14.25
2022-09-21T20:06:00.224Z,19.00
2022-09-21T20:09:11.896Z,16.40
2022-09-21T20:12:22.879Z,14.25
2022-09-21T20:15:35.226Z,19.40
2022-09-21T20:18:43.395Z,16.80
2022-09-21T20:21:49.492Z,15.00
2022-09-21T20:24:59.063Z,18.00
2022-09-21T20:28:04.310Z,19.80
2022-09-21T20:31:10.721Z,18.00
2022-09-21T20:34:14.149Z,17.40
2022-09-21T20:37:19.336Z,19.50
2022-09-21T20:40:25.663Z,20.00
2022-09-21T20:43:32.430Z,19.75
2022-09-21T20:46:37.275Z,19.00
2022-09-21T20:49:40.967Z,20.00
2022-09-21T20:52:45.423Z,19.00
2022-09-21T20:55:55.198Z,21.80
2022-09-21T20:58:59.278Z,20.33
2022-09-21T21:02:03.987Z,22.00
2022-09-21T21:05:09.391Z,19.40
2022-09-21T21:08:12.970Z,21.60
2022-09-21T21:11:16.718Z,21.60
2022-09-21T21:14:20.035Z,20.00
2022-09-21T21:17:25.180Z,20.60
2022-09-21T21:20:29.136Z,23.00
2022-09-21T21:23:52.956Z,21.00
2022-09-21T21:27:03.656Z,23.00
2022-09-21T21:30:09.395Z,21.00
2022-09-21T21:33:14.257Z,23.00
2022-09-21T21:36:17.574Z,21.67
2022-09-21T21:39:20.830Z,21.00
2022-09-21T21:42:25.335Z,23.00
2022-09-21T21:45:28.670Z,21.40
2022-09-21T21:48:33.360Z,22.60
2022-09-21T21:51:36.613Z,22.40
2022-09-21T21:54:39.888Z,25.00
2022-09-21T21:57:43.134Z,22.00
2022-09-21T22:00:47.338Z,19.75
2022-09-21T22:03:56.310Z,23.40
2022-09-21T22:06:59.551Z,23.25
2022-09-21T22:10:03.174Z,22.80
2022-09-21T22:13:07.494Z,22.75
2022-09-21T22:16:13.147Z,23.00
2022-09-21T22:19:18.010Z,22.00
2022-09-21T22:22:21.223Z,24.40
2022-09-21T22:25:25.425Z,24.00
2022-09-21T22:28:28.904Z,23.40
2022-09-21T22:31:35.455Z,24.60
2022-09-21T22:34:40.514Z,23.00
2022-09-21T22:37:44.325Z,24.40
2022-09-21T22:40:47.566Z,25.50
2022-09-21T22:43:53.177Z,25.00
2022-09-21T22:46:56.390Z,24.00
2022-09-21T22:50:00.984Z,24.00
2022-09-21T22:53:04.280Z,26.40
2022-09-21T22:56:10.362Z,26.00
2022-09-21T22:59:14.049Z,24.80
2022-09-21T23:02:17.640Z,25.25
2022-09-21T23:05:23.606Z,26.00
2022-09-21T23:08:27.028Z,28.25
2022-09-21T23:11:32.040Z,27.20
2022-09-21T23:14:35.291Z,27.00
2022-09-21T23:17:38.796Z,25.60
2022-09-21T23:20:43.798Z,27.00
2022-09-21T23:23:47.796Z,26.00
2022-09-21T23:26:52.398Z,25.50
2022-09-21T23:29:55.650Z,25.00
2022-09-21T23:32:58.810Z,29.25
2022-09-21T23:36:05.186Z,26.67
2022-09-21T23:39:11.363Z,26.60
2022-09-21T23:42:14.587Z,26.00
2022-09-21T23:45:18.157Z,26.00
2022-09-21T23:48:23.948Z,28.00
2022-09-21T23:51:30.533Z,28.60
2022-09-21T23:54:33.799Z,24.00
2022-09-21T23:57:37.030Z,26.40
